createdAt,value
2018-05-24T00:00:03.912Z,989.96
2018-05-24T00:01:03.705Z,989.97
2018-05-24T00:02:03.703Z,990.03
2018-05-24T00:03:03.675Z,990.02
2018-05-24T00:04:03.676Z,990.04
2018-05-24T00:05:03.606Z,990.06
2018-05-24T00:06:03.829Z,990.06
2018-05-24T00:09:03.505Z,990.07
2018-05-24T00:10:03.529Z,990.06
2018-05-24T00:11:03.480Z,990.07
2018-05-24T00:12:03.569Z,990.08
2018-05-24T00:13:03.422Z,990.04
2018-05-24T00:14:03.563Z,990.04
2018-05-24T00:17:23.019Z,990.10
2018-05-24T00:17:49.477Z,990.13
2018-05-24T00:18:49.448Z,990.14
2018-05-24T00:19:49.511Z,990.13
2018-05-24T00:20:49.405Z,990.19
2018-05-24T00:21:49.501Z,990.17
2018-05-24T00:22:49.534Z,990.18
2018-05-24T00:23:50.786Z,990.20
2018-05-24T00:24:49.858Z,990.20
2018-05-24T00:25:49.406Z,990.19
2018-05-24T00:26:49.713Z,990.19
2018-05-24T00:27:49.324Z,990.16
2018-05-24T00:28:49.493Z,990.17
2018-05-24T00:29:49.275Z,990.16
2018-05-24T00:30:49.233Z,990.17
2018-05-24T00:31:49.238Z,990.15
2018-05-24T00:32:49.220Z,990.19
2018-05-24T00:33:49.228Z,990.19
2018-05-24T00:34:49.724Z,990.22
2018-05-24T00:35:49.183Z,990.19
2018-05-24T00:36:49.158Z,990.20
2018-05-24T00:37:49.264Z,990.19
2018-05-24T00:38:49.055Z,990.21
2018-05-24T00:39:49.189Z,990.22
2018-05-24T00:40:49.023Z,990.26
2018-05-24T00:41:49.249Z,990.28
2018-05-24T00:42:48.943Z,990.31
2018-05-24T00:43:48.930Z,990.33
2018-05-24T00:44:49.330Z,990.32
2018-05-24T00:45:48.860Z,990.29
2018-05-24T00:46:50.436Z,990.33
2018-05-24T00:47:48.833Z,990.33
2018-05-24T00:48:48.820Z,990.35
2018-05-24T00:49:48.997Z,990.36
2018-05-24T00:50:48.760Z,990.39
2018-05-24T00:51:48.748Z,990.37
2018-05-24T00:52:48.914Z,990.40
2018-05-24T00:53:48.797Z,990.40
2018-05-24T00:54:48.953Z,990.45
2018-05-24T00:55:48.646Z,990.49
2018-05-24T00:56:48.628Z,990.46
2018-05-24T00:57:48.806Z,990.51
2018-05-24T00:58:48.573Z,990.52
2018-05-24T00:59:48.535Z,990.52
2018-05-24T01:00:48.831Z,990.53
2018-05-24T01:01:48.584Z,990.55
2018-05-24T01:02:48.571Z,990.57
2018-05-24T01:03:48.443Z,990.60
2018-05-24T01:04:48.435Z,990.65
2018-05-24T01:05:48.408Z,990.66
2018-05-24T01:06:50.525Z,990.68
2018-05-24T01:07:48.501Z,990.70
2018-05-24T01:08:48.902Z,990.76
2018-05-24T01:09:48.467Z,990.78
2018-05-24T01:10:50.120Z,990.78
2018-05-24T01:11:49.225Z,990.82
2018-05-24T01:12:48.466Z,990.80
2018-05-24T01:13:49.254Z,990.83
2018-05-24T01:14:49.666Z,990.83
2018-05-24T01:15:48.382Z,990.86
2018-05-24T01:16:48.866Z,990.86
2018-05-24T01:17:48.557Z,990.88
2018-05-24T01:18:48.311Z,990.95
2018-05-24T01:19:49.130Z,990.92
2018-05-24T01:20:48.098Z,990.97
2018-05-24T01:21:48.058Z,990.97
2018-05-24T01:22:48.268Z,991.01
2018-05-24T01:23:47.989Z,991.02
2018-05-24T01:24:48.255Z,991.04
2018-05-24T01:25:47.958Z,991.06
2018-05-24T01:26:47.959Z,991.06
2018-05-24T01:27:48.169Z,991.11
2018-05-24T01:28:47.844Z,991.10
2018-05-24T01:29:47.793Z,991.14
2018-05-24T01:30:47.773Z,991.12
2018-05-24T01:31:48.229Z,991.17
2018-05-24T01:32:48.021Z,991.18
2018-05-24T01:33:47.725Z,991.19
2018-05-24T01:34:47.743Z,991.22
2018-05-24T01:35:47.702Z,991.25
2018-05-24T01:36:48.089Z,991.23
2018-05-24T01:37:47.925Z,991.28
2018-05-24T01:38:47.620Z,991.27
2018-05-24T01:39:47.562Z,991.32
2018-05-24T01:40:47.607Z,991.29
2018-05-24T01:41:47.864Z,991.31
2018-05-24T01:42:47.505Z,991.33
2018-05-24T01:43:47.880Z,991.35
2018-05-24T01:44:47.460Z,991.33
2018-05-24T01:45:47.425Z,991.33
2018-05-24T01:46:47.362Z,991.32
2018-05-24T01:47:47.365Z,991.31
2018-05-24T01:48:47.351Z,991.31
2018-05-24T01:49:47.554Z,991.33
2018-05-24T01:50:47.286Z,991.26
2018-05-24T01:51:47.249Z,991.30
2018-05-24T01:52:47.271Z,991.34
2018-05-24T01:53:47.196Z,991.33
2018-05-24T01:54:47.453Z,991.33
2018-05-24T01:55:47.136Z,991.31
2018-05-24T01:56:47.176Z,991.37
2018-05-24T01:57:47.057Z,991.33
2018-05-24T01:58:47.041Z,991.33
2018-05-24T01:59:47.338Z,991.33
2018-05-24T02:00:47.213Z,991.30
2018-05-24T02:01:47.007Z,991.31
2018-05-24T02:02:46.965Z,991.33
2018-05-24T02:03:46.946Z,991.29
2018-05-24T02:04:47.235Z,991.31
2018-05-24T02:05:46.896Z,991.29
2018-05-24T02:06:46.899Z,991.30
2018-05-24T02:07:46.853Z,991.30
2018-05-24T02:08:46.887Z,991.32
2018-05-24T02:09:47.216Z,991.32
2018-05-24T02:10:46.792Z,991.32
2018-05-24T02:11:46.790Z,991.36
2018-05-24T02:12:46.752Z,991.39
2018-05-24T02:13:46.710Z,991.35
2018-05-24T02:14:46.763Z,991.34
2018-05-24T02:15:46.908Z,991.34
2018-05-24T02:16:46.622Z,991.29
2018-05-24T02:17:46.609Z,991.31
2018-05-24T02:18:46.579Z,991.31
2018-05-24T02:19:46.528Z,991.35
2018-05-24T02:20:46.501Z,991.38
2018-05-24T02:21:46.738Z,991.40
2018-05-24T02:22:46.479Z,991.45
2018-05-24T02:23:46.449Z,991.46
2018-05-24T02:24:46.403Z,991.55
2018-05-24T02:25:46.426Z,991.54
2018-05-24T02:26:46.363Z,991.53
2018-05-24T02:27:46.645Z,991.53
2018-05-24T02:28:46.297Z,991.52
2018-05-24T02:29:46.275Z,991.53
2018-05-24T02:30:46.372Z,991.54
2018-05-24T02:31:46.237Z,991.51
2018-05-24T02:32:46.358Z,991.49
2018-05-24T02:33:46.394Z,991.49
2018-05-24T02:34:46.123Z,991.49
2018-05-24T02:35:46.289Z,991.49
2018-05-24T02:36:46.089Z,991.49
2018-05-24T02:37:46.317Z,991.52
2018-05-24T02:38:46.063Z,991.51
2018-05-24T02:39:46.038Z,991.54
2018-05-24T02:40:46.286Z,991.54
2018-05-24T02:41:45.957Z,991.54
2018-05-24T02:42:46.496Z,991.57
2018-05-24T02:43:45.912Z,991.58
2018-05-24T02:44:46.189Z,991.59
2018-05-24T02:45:45.863Z,991.56
2018-05-24T02:46:45.869Z,991.55
2018-05-24T02:47:46.354Z,991.55
2018-05-24T02:48:46.099Z,991.52
2018-05-24T02:49:45.755Z,991.53
2018-05-24T02:50:45.797Z,991.55
2018-05-24T02:51:45.699Z,991.56
2018-05-24T02:52:45.688Z,991.53
2018-05-24T02:53:46.291Z,991.58
2018-05-24T02:54:45.619Z,991.57
2018-05-24T02:55:45.694Z,991.59
2018-05-24T02:56:45.621Z,991.55
2018-05-24T02:57:45.852Z,991.55
2018-05-24T02:58:45.529Z,991.53
2018-05-24T02:59:45.756Z,991.48
2018-05-24T03:00:45.761Z,991.50
2018-05-24T03:01:45.486Z,991.50
2018-05-24T03:02:45.422Z,991.49
2018-05-24T03:03:45.403Z,991.50
2018-05-24T03:04:45.367Z,991.49
2018-05-24T03:05:45.580Z,991.53
2018-05-24T03:06:45.310Z,991.52
2018-05-24T03:07:45.291Z,991.53
2018-05-24T03:08:45.271Z,991.57
2018-05-24T03:09:45.232Z,991.55
2018-05-24T03:10:45.443Z,991.57
2018-05-24T03:11:45.699Z,991.53
2018-05-24T03:12:44.956Z,991.53
2018-05-24T03:13:44.957Z,991.51
2018-05-24T03:14:44.921Z,991.56
2018-05-24T03:15:45.110Z,991.56
2018-05-24T03:16:44.830Z,991.52
2018-05-24T03:17:44.857Z,991.55
2018-05-24T03:18:44.803Z,991.53
2018-05-24T03:19:44.751Z,991.56
2018-05-24T03:20:44.893Z,991.56
2018-05-24T03:21:44.692Z,991.56
2018-05-24T03:22:44.699Z,991.60
2018-05-24T03:23:44.658Z,991.57
2018-05-24T03:24:44.628Z,991.60
2018-05-24T03:25:44.769Z,991.61
2018-05-24T03:26:44.665Z,991.62
2018-05-24T03:27:45.060Z,991.62
2018-05-24T03:28:44.544Z,991.61
2018-05-24T03:29:44.502Z,991.59
2018-05-24T03:30:44.580Z,991.61
2018-05-24T03:31:44.986Z,991.66
2018-05-24T03:32:44.508Z,991.65
2018-05-24T03:33:44.396Z,991.62
2018-05-24T03:34:44.365Z,991.64
2018-05-24T03:35:44.346Z,991.64
2018-05-24T03:36:44.315Z,991.67
2018-05-24T03:37:44.298Z,991.66
2018-05-24T03:38:44.328Z,991.64
2018-05-24T03:39:44.224Z,991.68
2018-05-24T03:40:44.205Z,991.67
2018-05-24T03:41:44.185Z,991.64
2018-05-24T03:42:44.163Z,991.62
2018-05-24T03:43:44.216Z,991.64
2018-05-24T03:44:44.102Z,991.60
2018-05-24T03:45:44.069Z,991.58
2018-05-24T03:46:44.043Z,991.57
2018-05-24T03:47:44.027Z,991.53
2018-05-24T03:48:44.087Z,991.51
2018-05-24T03:49:43.961Z,991.52
2018-05-24T03:50:44.051Z,991.52
2018-05-24T03:51:43.910Z,991.53
2018-05-24T03:52:44.454Z,991.53
2018-05-24T03:53:43.966Z,991.52
2018-05-24T03:54:43.857Z,991.54
2018-05-24T03:55:43.812Z,991.53
2018-05-24T03:56:43.787Z,991.52
2018-05-24T03:57:43.874Z,991.52
2018-05-24T03:58:43.837Z,991.48
2018-05-24T03:59:43.706Z,991.47
2018-05-24T04:00:43.986Z,991.45
2018-05-24T04:01:43.661Z,991.46
2018-05-24T04:02:43.632Z,991.45
2018-05-24T04:03:43.612Z,991.42
2018-05-24T04:04:43.627Z,991.45
2018-05-24T04:05:43.604Z,991.42
2018-05-24T04:06:43.528Z,991.42
2018-05-24T04:07:43.500Z,991.44
2018-05-24T04:08:43.472Z,991.42
2018-05-24T04:09:43.468Z,991.43
2018-05-24T04:10:43.570Z,991.43
2018-05-24T04:11:43.413Z,991.46
2018-05-24T04:12:43.915Z,991.44
2018-05-24T04:13:43.378Z,991.44
2018-05-24T04:14:43.319Z,991.44
2018-05-24T04:15:43.305Z,991.44
2018-05-24T04:16:43.373Z,991.44
2018-05-24T04:17:43.345Z,991.45
2018-05-24T04:18:43.194Z,991.46
2018-05-24T04:19:43.173Z,991.42
2018-05-24T04:20:43.144Z,991.42
2018-05-24T04:21:43.237Z,991.40
2018-05-24T04:22:43.118Z,991.42
2018-05-24T04:23:43.097Z,991.45
2018-05-24T04:24:43.062Z,991.40
2018-05-24T04:25:43.020Z,991.43
2018-05-24T04:26:43.139Z,991.40
2018-05-24T04:27:42.988Z,991.37
2018-05-24T04:28:42.959Z,991.34
2018-05-24T04:29:42.915Z,991.33
2018-05-24T04:30:42.908Z,991.35
2018-05-24T04:31:43.039Z,991.33
2018-05-24T04:32:42.900Z,991.31
2018-05-24T04:33:42.797Z,991.31
2018-05-24T04:34:42.919Z,991.29
2018-05-24T04:35:42.843Z,991.32
2018-05-24T04:36:42.718Z,991.31
2018-05-24T04:37:42.805Z,991.32
2018-05-24T04:38:42.690Z,991.32
2018-05-24T04:39:42.639Z,991.33
2018-05-24T04:40:42.617Z,991.29
2018-05-24T04:41:42.611Z,991.31
2018-05-24T04:42:42.674Z,991.26
2018-05-24T04:43:42.562Z,991.24
2018-05-24T04:44:42.516Z,991.22
2018-05-24T04:45:42.536Z,991.21
2018-05-24T04:46:42.460Z,991.22
2018-05-24T04:47:42.486Z,991.24
2018-05-24T04:48:42.511Z,991.29
2018-05-24T04:49:42.382Z,991.24
2018-05-24T04:50:42.394Z,991.23
2018-05-24T04:51:42.337Z,991.23
2018-05-24T04:52:42.302Z,991.20
2018-05-24T04:53:42.271Z,991.18
2018-05-24T04:54:42.358Z,991.17
2018-05-24T04:55:42.221Z,991.14
2018-05-24T04:56:42.192Z,991.13
2018-05-24T04:57:42.182Z,991.15
2018-05-24T04:58:42.148Z,991.15
2018-05-24T04:59:42.230Z,991.16
2018-05-24T05:00:42.143Z,991.17
2018-05-24T05:01:42.197Z,991.14
2018-05-24T05:02:42.034Z,991.13
2018-05-24T05:03:42.021Z,991.14
2018-05-24T05:04:42.090Z,991.11
2018-05-24T05:05:41.954Z,991.10
2018-05-24T05:06:42.002Z,991.11
2018-05-24T05:07:41.925Z,991.09
2018-05-24T05:08:42.440Z,991.07
2018-05-24T05:09:41.871Z,991.07
2018-05-24T05:10:41.931Z,991.07
2018-05-24T05:11:41.815Z,991.01
2018-05-24T05:12:41.768Z,991.01
2018-05-24T05:13:41.745Z,991.00
2018-05-24T05:14:41.759Z,990.97
2018-05-24T05:15:41.770Z,991.01
2018-05-24T05:16:41.667Z,990.98
2018-05-24T05:17:41.644Z,990.95
2018-05-24T05:18:41.629Z,990.95
2018-05-24T05:19:41.633Z,990.92
2018-05-24T05:20:41.660Z,990.90
2018-05-24T05:21:41.544Z,990.87
2018-05-24T05:22:41.516Z,990.88
2018-05-24T05:23:41.485Z,990.85
2018-05-24T05:24:41.448Z,990.84
2018-05-24T05:25:41.545Z,990.85
2018-05-24T05:26:41.648Z,990.85
2018-05-24T05:27:41.391Z,990.86
2018-05-24T05:28:41.356Z,990.86
2018-05-24T05:29:41.424Z,990.86
2018-05-24T05:30:41.383Z,990.83
2018-05-24T05:31:41.281Z,990.84
2018-05-24T05:32:41.341Z,990.85
2018-05-24T05:33:41.211Z,990.80
2018-05-24T05:34:41.257Z,990.83
2018-05-24T05:35:41.247Z,990.82
2018-05-24T05:36:41.133Z,990.81
2018-05-24T05:37:41.185Z,990.82
2018-05-24T05:38:41.138Z,990.80
2018-05-24T05:39:41.084Z,990.81
2018-05-24T05:40:41.058Z,990.76
2018-05-24T05:41:41.025Z,990.72
2018-05-24T05:42:40.974Z,990.70
2018-05-24T05:43:41.063Z,990.70
2018-05-24T05:44:40.937Z,990.68
2018-05-24T05:45:40.960Z,990.64
2018-05-24T05:46:40.875Z,990.62
2018-05-24T05:47:40.862Z,990.60
2018-05-24T05:48:40.837Z,990.62
2018-05-24T05:49:40.912Z,990.58
2018-05-24T05:50:40.794Z,990.58
2018-05-24T05:51:40.735Z,990.59
2018-05-24T05:52:40.705Z,990.60
2018-05-24T05:53:40.697Z,990.57
2018-05-24T05:54:40.754Z,990.59
2018-05-24T05:55:40.662Z,990.55
2018-05-24T05:56:40.682Z,990.50
2018-05-24T05:57:40.595Z,990.51
2018-05-24T05:58:40.584Z,990.44
2018-05-24T05:59:40.621Z,990.41
2018-05-24T06:00:40.577Z,990.37
2018-05-24T06:01:40.498Z,990.35
2018-05-24T06:02:40.454Z,990.36
2018-05-24T06:03:40.428Z,990.33
2018-05-24T06:04:40.416Z,990.34
2018-05-24T06:05:40.419Z,990.29
2018-05-24T06:06:40.364Z,990.29
2018-05-24T06:07:40.313Z,990.30
2018-05-24T06:08:40.300Z,990.27
2018-05-24T06:09:40.309Z,990.28
2018-05-24T06:10:40.378Z,990.27
2018-05-24T06:11:40.218Z,990.26
2018-05-24T06:12:40.283Z,990.30
2018-05-24T06:13:40.152Z,990.27
2018-05-24T06:14:40.139Z,990.26
2018-05-24T06:15:40.152Z,990.24
2018-05-24T06:16:40.073Z,990.21
2018-05-24T06:17:40.053Z,990.22
2018-05-24T06:18:40.022Z,990.20
2018-05-24T06:19:39.998Z,990.20
2018-05-24T06:20:39.969Z,990.15
2018-05-24T06:21:40.063Z,990.17
2018-05-24T06:22:39.919Z,990.10
2018-05-24T06:23:39.899Z,990.11
2018-05-24T06:24:39.898Z,990.09
2018-05-24T06:25:39.834Z,990.10
2018-05-24T06:26:39.905Z,990.10
2018-05-24T06:27:39.790Z,990.11
2018-05-24T06:28:39.770Z,990.11
2018-05-24T06:29:39.724Z,990.07
2018-05-24T06:30:39.737Z,990.07
2018-05-24T06:31:39.748Z,990.07
2018-05-24T06:32:39.669Z,990.04
2018-05-24T06:33:39.632Z,990.02
2018-05-24T06:34:39.616Z,990.01
2018-05-24T06:35:39.575Z,990.02
2018-05-24T06:36:39.649Z,989.99
2018-05-24T06:37:39.548Z,989.97
2018-05-24T06:38:39.513Z,989.98
2018-05-24T06:39:39.565Z,989.94
2018-05-24T06:40:39.602Z,989.94
2018-05-24T06:41:39.408Z,989.93
2018-05-24T06:42:39.494Z,989.94
2018-05-24T06:43:39.373Z,989.91
2018-05-24T06:44:39.373Z,989.92
2018-05-24T06:45:39.318Z,989.91
2018-05-24T06:46:39.295Z,989.88
2018-05-24T06:47:39.257Z,989.92
2018-05-24T06:48:39.281Z,989.86
2018-05-24T06:49:39.205Z,989.86
2018-05-24T06:50:39.181Z,989.85
2018-05-24T06:51:39.214Z,989.82
2018-05-24T06:52:39.129Z,989.87
2018-05-24T06:53:39.205Z,989.86
2018-05-24T06:54:39.160Z,989.86
2018-05-24T06:55:39.039Z,989.88
2018-05-24T06:56:39.017Z,989.86
2018-05-24T06:57:38.991Z,989.84
2018-05-24T06:58:38.962Z,989.86
2018-05-24T06:59:38.983Z,989.85
2018-05-24T07:00:38.901Z,989.81
2018-05-24T07:01:38.882Z,989.82
2018-05-24T07:02:38.852Z,989.80
2018-05-24T07:03:38.844Z,989.78
2018-05-24T07:04:38.980Z,989.80
2018-05-24T07:05:38.773Z,989.81
2018-05-24T07:06:38.765Z,989.79
2018-05-24T07:07:38.759Z,989.79
2018-05-24T07:08:38.712Z,989.78
2018-05-24T07:09:38.781Z,989.79
2018-05-24T07:10:38.633Z,989.74
2018-05-24T07:11:38.630Z,989.78
2018-05-24T07:12:38.584Z,989.76
2018-05-24T07:13:38.547Z,989.76
2018-05-24T07:14:38.640Z,989.76
2018-05-24T07:15:38.544Z,989.72
2018-05-24T07:16:38.484Z,989.76
2018-05-24T07:17:38.445Z,989.75
2018-05-24T07:18:38.451Z,989.72
2018-05-24T07:19:38.397Z,989.70
2018-05-24T07:20:38.434Z,989.70
2018-05-24T07:21:38.380Z,989.68
2018-05-24T07:22:38.338Z,989.68
2018-05-24T07:23:38.287Z,989.67
2018-05-24T07:24:38.285Z,989.66
2018-05-24T07:25:38.280Z,989.67
2018-05-24T07:26:38.259Z,989.66
2018-05-24T07:27:38.256Z,989.67
2018-05-24T07:28:38.176Z,989.66
2018-05-24T07:29:38.147Z,989.65
2018-05-24T07:30:38.108Z,989.70
2018-05-24T07:31:38.146Z,989.67
2018-05-24T07:32:38.101Z,989.70
2018-05-24T07:33:38.024Z,989.68
2018-05-24T07:34:38.001Z,989.65
2018-05-24T07:35:37.971Z,989.64
2018-05-24T07:36:37.942Z,989.66
2018-05-24T07:37:38.163Z,989.65
2018-05-24T07:38:37.891Z,989.64
2018-05-24T07:39:37.942Z,989.65
2018-05-24T07:40:37.929Z,989.62
2018-05-24T07:41:37.828Z,989.62
2018-05-24T07:42:37.883Z,989.64
2018-05-24T07:43:37.761Z,989.64
2018-05-24T07:44:37.733Z,989.63
2018-05-24T07:45:37.791Z,989.63
2018-05-24T07:46:37.684Z,989.63
2018-05-24T07:47:37.771Z,989.59
2018-05-24T07:48:37.624Z,989.60
2018-05-24T07:49:37.605Z,989.59
2018-05-24T07:50:37.644Z,989.56
2018-05-24T07:51:37.560Z,989.59
2018-05-24T07:52:37.525Z,989.58
2018-05-24T07:53:37.673Z,989.64
2018-05-24T07:54:37.465Z,989.62
2018-05-24T07:55:37.455Z,989.64
2018-05-24T07:56:37.426Z,989.61
2018-05-24T07:57:37.396Z,989.62
2018-05-24T07:58:37.416Z,989.64
2018-05-24T07:59:37.346Z,989.63
2018-05-24T08:00:37.322Z,989.63
2018-05-24T08:01:37.422Z,989.65
2018-05-24T08:02:37.266Z,989.63
2018-05-24T08:03:37.229Z,989.66
2018-05-24T08:04:37.315Z,989.63
2018-05-24T08:05:38.967Z,989.64
2018-05-24T08:06:37.148Z,989.63
2018-05-24T08:07:37.136Z,989.63
2018-05-24T08:08:37.194Z,989.63
2018-05-24T08:09:37.185Z,989.67
2018-05-24T08:10:37.138Z,989.64
2018-05-24T08:11:37.019Z,989.64
2018-05-24T08:12:36.992Z,989.67
2018-05-24T08:13:36.981Z,989.66
2018-05-24T08:14:37.060Z,989.66
2018-05-24T08:15:36.967Z,989.63
2018-05-24T08:16:36.898Z,989.63
2018-05-24T08:17:36.860Z,989.68
2018-05-24T08:18:36.840Z,989.67
2018-05-24T08:19:36.863Z,989.66
2018-05-24T08:20:37.080Z,989.64
2018-05-24T08:21:36.774Z,989.65
2018-05-24T08:22:36.827Z,989.64
2018-05-24T08:23:36.703Z,989.63
2018-05-24T08:24:36.773Z,989.62
2018-05-24T08:25:36.723Z,989.59
2018-05-24T08:26:36.640Z,989.56
2018-05-24T08:27:36.592Z,989.57
2018-05-24T08:28:36.564Z,989.53
2018-05-24T08:29:36.553Z,989.53
2018-05-24T08:30:36.615Z,989.51
2018-05-24T08:31:36.571Z,989.51
2018-05-24T08:32:36.482Z,989.53
2018-05-24T08:33:36.451Z,989.51
2018-05-24T08:34:36.415Z,989.50
2018-05-24T08:35:39.513Z,989.50
2018-05-24T08:36:36.404Z,989.46
2018-05-24T08:37:36.336Z,989.45
2018-05-24T08:38:36.317Z,989.41
2018-05-24T08:39:36.302Z,989.38
2018-05-24T08:40:36.357Z,989.36
2018-05-24T08:41:36.350Z,989.35
2018-05-24T08:42:36.296Z,989.35
2018-05-24T08:43:36.189Z,989.34
2018-05-24T08:44:36.178Z,989.33
2018-05-24T08:45:36.179Z,989.32
2018-05-24T08:46:36.106Z,989.33
2018-05-24T08:47:36.186Z,989.30
2018-05-24T08:48:36.039Z,989.32
2018-05-24T08:49:36.018Z,989.33
2018-05-24T08:50:36.278Z,989.34
2018-05-24T08:51:35.975Z,989.33
2018-05-24T08:52:36.042Z,989.35
2018-05-24T08:53:35.909Z,989.39
2018-05-24T08:54:35.880Z,989.38
2018-05-24T08:55:36.000Z,989.40
2018-05-24T08:56:35.860Z,989.41
2018-05-24T08:57:35.900Z,989.41
2018-05-24T08:58:35.788Z,989.39
2018-05-24T08:59:35.753Z,989.36
2018-05-24T09:00:35.841Z,989.39
2018-05-24T09:01:35.702Z,989.40
2018-05-24T09:02:35.781Z,989.36
2018-05-24T09:03:35.641Z,989.37
2018-05-24T09:04:35.631Z,989.38
2018-05-24T09:05:35.609Z,989.37
2018-05-24T09:06:35.562Z,989.36
2018-05-24T09:07:35.651Z,989.35
2018-05-24T09:08:35.530Z,989.32
2018-05-24T09:09:35.583Z,989.33
2018-05-24T09:10:35.555Z,989.35
2018-05-24T09:11:35.434Z,989.35
2018-05-24T09:12:35.406Z,989.30
2018-05-24T09:13:35.435Z,989.34
2018-05-24T09:14:35.382Z,989.33
2018-05-24T09:15:35.325Z,989.34
2018-05-24T09:16:35.294Z,989.34
2018-05-24T09:17:35.275Z,989.34
2018-05-24T09:18:35.296Z,989.34
2018-05-24T09:19:35.234Z,989.36
2018-05-24T09:20:35.197Z,989.36
2018-05-24T09:21:35.170Z,989.37
2018-05-24T09:22:35.147Z,989.34
2018-05-24T09:23:35.167Z,989.37
2018-05-24T09:24:35.086Z,989.38
2018-05-24T09:25:35.057Z,989.35
2018-05-24T09:26:35.038Z,989.34
2018-05-24T09:27:35.025Z,989.33
2018-05-24T09:28:35.039Z,989.34
2018-05-24T09:29:34.958Z,989.34
2018-05-24T09:30:34.929Z,989.34
2018-05-24T09:31:34.917Z,989.35
2018-05-24T09:32:34.880Z,989.34
2018-05-24T09:33:34.902Z,989.33
2018-05-24T09:34:34.901Z,989.35
2018-05-24T09:35:34.816Z,989.33
2018-05-24T09:36:34.770Z,989.35
2018-05-24T09:37:34.739Z,989.31
2018-05-24T09:38:34.771Z,989.31
2018-05-24T09:39:34.691Z,989.32
2018-05-24T09:40:34.661Z,989.30
2018-05-24T09:41:34.644Z,989.31
2018-05-24T09:42:34.611Z,989.27
2018-05-24T09:43:34.694Z,989.28
2018-05-24T09:44:34.562Z,989.24
2018-05-24T09:45:34.547Z,989.27
2018-05-24T09:46:34.513Z,989.27
2018-05-24T09:47:34.485Z,989.25
2018-05-24T09:48:34.453Z,989.26
2018-05-24T09:49:34.532Z,989.27
2018-05-24T09:50:34.521Z,989.28
2018-05-24T09:51:34.373Z,989.28
2018-05-24T09:52:34.365Z,989.27
2018-05-24T09:53:34.333Z,989.29
2018-05-24T09:54:34.297Z,989.29
2018-05-24T09:55:34.376Z,989.31
2018-05-24T09:56:34.245Z,989.31
2018-05-24T09:57:34.234Z,989.31
2018-05-24T09:58:34.198Z,989.32
2018-05-24T09:59:34.165Z,989.31
2018-05-24T10:00:34.247Z,989.34
2018-05-24T10:01:34.123Z,989.32
2018-05-24T10:02:34.103Z,989.32
2018-05-24T10:03:34.056Z,989.29
2018-05-24T10:04:34.039Z,989.33
2018-05-24T10:05:34.056Z,989.31
2018-05-24T10:06:33.978Z,989.31
2018-05-24T10:07:33.964Z,989.28
2018-05-24T10:08:33.931Z,989.29
2018-05-24T10:09:33.914Z,989.25
2018-05-24T10:10:33.990Z,989.28
2018-05-24T10:11:33.864Z,989.29
2018-05-24T10:12:33.817Z,989.29
2018-05-24T10:13:33.798Z,989.30
2018-05-24T10:14:33.769Z,989.30
2018-05-24T10:15:33.855Z,989.26
2018-05-24T10:16:33.730Z,989.27
2018-05-24T10:17:33.690Z,989.32
2018-05-24T10:18:33.659Z,989.28
2018-05-24T10:19:33.648Z,989.29
2018-05-24T10:20:33.615Z,989.31
2018-05-24T10:21:33.696Z,989.31
2018-05-24T10:22:33.561Z,989.29
2018-05-24T10:23:33.555Z,989.28
2018-05-24T10:24:33.500Z,989.31
2018-05-24T10:25:33.471Z,989.28
2018-05-24T10:26:33.462Z,989.28
2018-05-24T10:27:33.523Z,989.28
2018-05-24T10:28:33.409Z,989.28
2018-05-24T10:29:33.372Z,989.29
2018-05-24T10:30:33.358Z,989.31
2018-05-24T10:31:33.313Z,989.26
2018-05-24T10:32:33.347Z,989.28
2018-05-24T10:33:33.313Z,989.27
2018-05-24T10:34:33.232Z,989.29
2018-05-24T10:35:33.222Z,989.28
2018-05-24T10:36:33.183Z,989.27
2018-05-24T10:37:33.163Z,989.28
2018-05-24T10:38:33.235Z,989.26
2018-05-24T10:39:33.267Z,989.33
2018-05-24T10:40:33.085Z,989.32
2018-05-24T10:41:33.045Z,989.32
2018-05-24T10:42:33.025Z,989.35
2018-05-24T10:43:33.168Z,989.32
2018-05-24T10:44:32.967Z,989.34
2018-05-24T10:45:32.947Z,989.39
2018-05-24T10:46:32.918Z,989.38
2018-05-24T10:47:32.897Z,989.42
2018-05-24T10:48:32.919Z,989.42
2018-05-24T10:49:32.939Z,989.45
2018-05-24T10:50:32.808Z,989.45
2018-05-24T10:51:32.788Z,989.48
2018-05-24T10:52:32.768Z,989.51
2018-05-24T10:53:32.795Z,989.50
2018-05-24T10:54:32.797Z,989.53
2018-05-24T10:55:32.680Z,989.53
2018-05-24T10:56:32.649Z,989.54
2018-05-24T10:57:32.639Z,989.57
2018-05-24T10:58:32.653Z,989.57
2018-05-24T10:59:32.812Z,989.57
2018-05-24T11:00:32.554Z,989.58
2018-05-24T11:01:32.537Z,989.62
2018-05-24T11:02:32.507Z,989.63
2018-05-24T11:03:32.469Z,989.64
2018-05-24T11:04:32.441Z,989.66
2018-05-24T11:05:32.511Z,989.67
2018-05-24T11:06:32.385Z,989.70
2018-05-24T11:07:32.372Z,989.66
2018-05-24T11:08:32.331Z,989.65
2018-05-24T11:09:32.319Z,989.68
2018-05-24T11:10:32.285Z,989.68
2018-05-24T11:11:32.344Z,989.70
2018-05-24T11:12:32.224Z,989.70
2018-05-24T11:13:32.211Z,989.74
2018-05-24T11:14:32.213Z,989.73
2018-05-24T11:15:32.143Z,989.76
2018-05-24T11:16:32.213Z,989.76
2018-05-24T11:17:32.095Z,989.73
2018-05-24T11:18:32.075Z,989.74
2018-05-24T11:19:32.047Z,989.71
2018-05-24T11:20:32.016Z,989.72
2018-05-24T11:21:32.124Z,989.72
2018-05-24T11:22:31.966Z,989.73
2018-05-24T11:23:31.953Z,989.73
2018-05-24T11:24:31.923Z,989.75
2018-05-24T11:25:31.880Z,989.78
2018-05-24T11:26:32.034Z,989.76
2018-05-24T11:27:31.826Z,989.77
2018-05-24T11:28:31.815Z,989.74
2018-05-24T11:29:31.787Z,989.76
2018-05-24T11:30:31.765Z,989.77
2018-05-24T11:31:31.721Z,989.77
2018-05-24T11:32:31.797Z,989.74
2018-05-24T11:33:31.685Z,989.73
2018-05-24T11:34:31.639Z,989.77
2018-05-24T11:35:31.627Z,989.75
2018-05-24T11:36:31.605Z,989.77
2018-05-24T11:37:31.609Z,989.78
2018-05-24T11:38:31.549Z,989.76
2018-05-24T11:39:31.511Z,989.81
2018-05-24T11:40:31.491Z,989.77
2018-05-24T11:41:31.451Z,989.79
2018-05-24T11:42:31.441Z,989.81
2018-05-24T11:43:31.675Z,989.79
2018-05-24T11:44:31.503Z,989.78
2018-05-24T11:45:31.389Z,989.80
2018-05-24T11:46:31.400Z,989.76
2018-05-24T11:47:31.292Z,989.81
2018-05-24T11:48:31.284Z,989.81
2018-05-24T11:49:31.500Z,989.83
2018-05-24T11:50:31.228Z,989.83
2018-05-24T11:51:31.210Z,989.84
2018-05-24T11:52:31.178Z,989.84
2018-05-24T11:53:31.373Z,989.86
2018-05-24T11:54:31.597Z,989.85
2018-05-24T11:55:31.115Z,989.88
2018-05-24T11:56:31.055Z,989.87
2018-05-24T11:57:31.034Z,989.89
2018-05-24T11:58:31.005Z,989.90
2018-05-24T11:59:31.062Z,989.90
2018-05-24T12:00:30.965Z,989.91
2018-05-24T12:01:30.928Z,989.95
2018-05-24T12:02:31.003Z,989.97
2018-05-24T12:03:30.875Z,989.97
2018-05-24T12:04:30.846Z,989.97
2018-05-24T12:05:32.198Z,989.98
2018-05-24T12:06:30.806Z,989.97
2018-05-24T12:07:30.929Z,989.98
2018-05-24T12:08:30.749Z,989.98
2018-05-24T12:09:30.795Z,989.98
2018-05-24T12:10:30.857Z,989.98
2018-05-24T12:11:30.667Z,990.02
2018-05-24T12:12:30.657Z,990.00
2018-05-24T12:13:30.621Z,990.02
2018-05-24T12:14:30.595Z,990.02
2018-05-24T12:15:30.686Z,990.03
2018-05-24T12:16:30.615Z,990.08
2018-05-24T12:17:30.515Z,990.08
2018-05-24T12:18:30.491Z,990.06
2018-05-24T12:19:30.450Z,990.05
2018-05-24T12:20:30.453Z,990.07
2018-05-24T12:21:30.441Z,990.06
2018-05-24T12:22:30.381Z,990.08
2018-05-24T12:23:30.411Z,990.10
2018-05-24T12:24:30.301Z,990.13
2018-05-24T12:25:30.625Z,990.16
2018-05-24T12:26:30.272Z,990.16
2018-05-24T12:27:30.360Z,990.18
2018-05-24T12:28:30.241Z,990.19
2018-05-24T12:29:30.201Z,990.18
2018-05-24T12:30:30.189Z,990.26
2018-05-24T12:31:30.162Z,990.25